createdAt,value
2018-09-25T00:00:09.658Z,77.70
2018-09-25T00:02:43.378Z,76.80
2018-09-25T00:05:17.292Z,76.80
2018-09-25T00:07:51.054Z,76.80
2018-09-25T00:10:24.833Z,76.70
2018-09-25T00:12:58.837Z,76.90
2018-09-25T00:15:32.655Z,77.00
2018-09-25T00:18:06.502Z,77.20
2018-09-25T00:20:40.282Z,77.20
2018-09-25T00:23:14.063Z,79.20
2018-09-25T00:25:47.864Z,78.00
2018-09-25T00:28:21.644Z,77.50
2018-09-25T00:30:55.306Z,77.30
2018-09-25T00:33:28.940Z,77.40
2018-09-25T00:36:02.701Z,78.30
2018-09-25T00:38:36.532Z,78.50
2018-09-25T00:41:10.223Z,77.80
2018-09-25T00:43:43.932Z,78.00
2018-09-25T00:46:17.833Z,77.60
2018-09-25T00:48:51.610Z,79.20
2018-09-25T00:51:25.557Z,80.00
2018-09-25T00:53:59.309Z,79.70
2018-09-25T00:56:33.092Z,79.40
2018-09-25T00:59:07.064Z,79.10
2018-09-25T01:01:40.771Z,78.50
2018-09-25T01:04:14.581Z,78.70
2018-09-25T01:06:48.390Z,78.40
2018-09-25T01:09:22.201Z,78.30
2018-09-25T01:11:55.984Z,78.60
2018-09-25T01:14:29.876Z,77.80
2018-09-25T01:17:03.546Z,77.80
2018-09-25T01:19:37.325Z,78.40
2018-09-25T01:22:11.088Z,78.90
2018-09-25T01:24:44.980Z,78.40
2018-09-25T01:27:18.870Z,78.60
2018-09-25T01:29:52.541Z,77.90
2018-09-25T01:32:26.403Z,77.90
2018-09-25T01:35:00.062Z,77.70
2018-09-25T01:37:33.903Z,77.80
2018-09-25T01:40:07.695Z,77.70
2018-09-25T01:42:41.780Z,77.80
2018-09-25T01:45:15.821Z,77.90
2018-09-25T01:47:49.592Z,78.00
2018-09-25T01:50:23.366Z,78.10
2018-09-25T01:52:57.121Z,78.20
2018-09-25T01:55:30.819Z,78.30
2018-09-25T01:58:04.583Z,78.20
2018-09-25T02:00:38.198Z,78.20
2018-09-25T02:03:12.078Z,78.00
2018-09-25T02:05:46.010Z,78.00
2018-09-25T02:08:19.828Z,77.90
2018-09-25T02:10:53.661Z,78.10
2018-09-25T02:13:27.363Z,77.70
2018-09-25T02:16:01.073Z,77.90
2018-09-25T02:18:34.721Z,79.10
2018-09-25T02:21:08.385Z,78.40
2018-09-25T02:23:42.191Z,78.40
2018-09-25T02:26:15.900Z,78.80
2018-09-25T02:28:49.750Z,78.80
2018-09-25T02:31:23.364Z,78.40
2018-09-25T02:33:57.253Z,78.30
2018-09-25T02:36:30.931Z,78.00
2018-09-25T02:39:04.752Z,78.00
2018-09-25T02:41:38.548Z,78.00
2018-09-25T02:44:12.453Z,77.90
2018-09-25T02:46:46.324Z,78.20
2018-09-25T02:49:20.089Z,79.20
2018-09-25T02:51:53.944Z,77.90
2018-09-25T02:54:27.864Z,77.70
2018-09-25T02:57:01.599Z,78.00
2018-09-25T02:59:35.399Z,78.00
2018-09-25T03:02:09.232Z,78.20
2018-09-25T03:04:43.008Z,78.20
2018-09-25T03:07:16.796Z,77.70
2018-09-25T03:09:50.598Z,77.70
2018-09-25T03:12:24.403Z,77.70
2018-09-25T03:14:58.039Z,77.80
2018-09-25T03:17:31.601Z,78.00
2018-09-25T03:20:05.327Z,77.80
2018-09-25T03:22:39.117Z,78.50
2018-09-25T03:25:12.947Z,78.00
2018-09-25T03:27:46.808Z,77.70
2018-09-25T03:30:20.650Z,78.10
2018-09-25T03:32:54.492Z,77.60
2018-09-25T03:35:28.384Z,77.30
2018-09-25T03:38:02.058Z,78.10
2018-09-25T03:40:35.918Z,78.20
2018-09-25T03:43:09.706Z,77.80
2018-09-25T03:45:43.485Z,77.90
2018-09-25T03:48:17.298Z,78.10
2018-09-25T03:50:50.897Z,78.30
2018-09-25T03:53:24.685Z,78.40
2018-09-25T03:55:58.401Z,78.60
2018-09-25T03:58:32.130Z,78.60
2018-09-25T04:01:05.956Z,78.10
2018-09-25T04:03:39.666Z,78.20
2018-09-25T04:06:13.611Z,78.30
2018-09-25T04:08:47.628Z,78.20
2018-09-25T04:11:21.455Z,78.10
2018-09-25T04:13:55.270Z,78.20
2018-09-25T04:16:29.184Z,77.70
2018-09-25T04:19:02.918Z,78.30
2018-09-25T04:21:36.779Z,78.10
2018-09-25T04:24:10.633Z,77.90
2018-09-25T04:26:44.387Z,78.10
2018-09-25T04:29:18.309Z,78.10
2018-09-25T04:31:51.998Z,78.20
2018-09-25T04:34:25.764Z,77.50
2018-09-25T04:36:59.640Z,77.60
2018-09-25T04:39:33.550Z,78.40
2018-09-25T04:42:07.409Z,78.60
2018-09-25T04:44:41.148Z,80.00
2018-09-25T04:47:14.945Z,79.20
2018-09-25T04:49:48.665Z,78.80
2018-09-25T04:52:22.295Z,79.00
2018-09-25T04:54:56.046Z,79.00
2018-09-25T04:57:29.682Z,79.60
2018-09-25T05:00:03.449Z,79.50
2018-09-25T05:02:37.134Z,78.70
2018-09-25T05:05:10.941Z,79.00
2018-09-25T05:07:44.813Z,78.50
2018-09-25T05:10:18.525Z,78.40
2018-09-25T05:12:52.305Z,78.50
2018-09-25T05:15:26.003Z,78.20
2018-09-25T05:17:59.735Z,79.10
2018-09-25T05:20:33.681Z,80.00
2018-09-25T05:23:07.438Z,78.80
2018-09-25T05:25:41.181Z,79.10
2018-09-25T05:28:14.883Z,78.90
2018-09-25T05:30:48.505Z,79.50
2018-09-25T05:33:22.362Z,79.00
2018-09-25T05:35:56.082Z,78.90
2018-09-25T05:38:29.865Z,78.50
2018-09-25T05:41:03.612Z,78.70
2018-09-25T05:43:37.495Z,79.70
2018-09-25T05:46:11.301Z,79.50
2018-09-25T05:48:45.118Z,79.30
2018-09-25T05:51:19.195Z,79.30
2018-09-25T05:53:53.084Z,78.80
2018-09-25T05:56:26.857Z,79.80
2018-09-25T05:59:00.518Z,81.90
2018-09-25T06:01:34.252Z,81.50
2018-09-25T06:04:08.008Z,83.10
2018-09-25T06:06:41.905Z,82.40
2018-09-25T06:09:15.834Z,80.90
2018-09-25T06:11:49.790Z,81.80
2018-09-25T06:14:23.646Z,80.40
2018-09-25T06:16:57.569Z,79.40
2018-09-25T06:19:31.203Z,79.90
2018-09-25T06:22:04.907Z,79.50
2018-09-25T06:24:38.662Z,79.20
2018-09-25T06:27:12.485Z,79.30
2018-09-25T06:29:46.261Z,80.50
2018-09-25T06:32:20.045Z,81.10
2018-09-25T06:34:53.830Z,80.30
2018-09-25T06:37:27.689Z,81.50
2018-09-25T06:40:01.476Z,81.10
2018-09-25T06:42:35.290Z,81.00
2018-09-25T06:45:09.117Z,81.50
2018-09-25T06:47:42.787Z,82.10
2018-09-25T06:50:16.463Z,81.40
2018-09-25T06:52:50.369Z,82.40
2018-09-25T06:55:24.056Z,81.70
2018-09-25T06:57:57.744Z,82.40
2018-09-25T07:00:31.642Z,82.20
2018-09-25T07:03:05.454Z,82.00
2018-09-25T07:05:39.264Z,82.20
2018-09-25T07:08:13.357Z,83.10
2018-09-25T07:10:47.069Z,82.90
2018-09-25T07:13:21.136Z,82.10
2018-09-25T07:15:55.034Z,82.40
2018-09-25T07:18:28.881Z,82.70
2018-09-25T07:21:02.683Z,82.20
2018-09-25T07:23:36.528Z,82.60
2018-09-25T07:26:10.200Z,82.40
2018-09-25T07:28:44.042Z,83.00
2018-09-25T07:31:17.862Z,83.00
2018-09-25T07:33:51.620Z,82.40
2018-09-25T07:36:25.450Z,81.50
2018-09-25T07:38:59.083Z,81.40
2018-09-25T07:41:32.835Z,81.20
2018-09-25T07:44:14.380Z,81.40
2018-09-25T07:46:48.100Z,81.50
2018-09-25T07:49:21.879Z,80.40
2018-09-25T07:51:55.657Z,80.10
2018-09-25T07:54:29.391Z,79.40
2018-09-25T07:57:03.066Z,78.60
2018-09-25T07:59:36.782Z,77.80
2018-09-25T08:02:11.019Z,76.40
2018-09-25T08:04:44.823Z,75.20
2018-09-25T08:07:18.572Z,74.70
2018-09-25T08:09:52.312Z,75.00
2018-09-25T08:12:26.020Z,74.00
2018-09-25T08:14:59.815Z,74.50
2018-09-25T08:17:33.680Z,75.00
2018-09-25T08:20:07.740Z,74.00
2018-09-25T08:22:41.446Z,74.20
2018-09-25T08:25:15.141Z,74.40
2018-09-25T08:27:49.076Z,74.40
2018-09-25T08:30:22.684Z,73.80
2018-09-25T08:32:56.467Z,74.20
2018-09-25T08:35:30.167Z,74.80
2018-09-25T08:38:04.127Z,74.20
2018-09-25T08:40:37.880Z,73.20
2018-09-25T08:43:12.041Z,72.00
2018-09-25T08:45:45.848Z,71.30
2018-09-25T08:48:19.672Z,71.60
2018-09-25T08:50:53.482Z,70.90
2018-09-25T08:53:27.247Z,69.80
2018-09-25T08:56:01.285Z,70.30
2018-09-25T08:58:34.970Z,70.40
2018-09-25T09:01:08.534Z,70.40
2018-09-25T09:03:42.320Z,69.50
2018-09-25T09:06:16.104Z,67.50
2018-09-25T09:08:49.768Z,66.70
2018-09-25T09:11:23.603Z,66.40
2018-09-25T09:13:57.269Z,67.00
2018-09-25T09:16:30.972Z,66.60
2018-09-25T09:19:04.831Z,64.80
2018-09-25T09:21:38.760Z,65.40
2018-09-25T09:24:12.592Z,64.60
2018-09-25T09:26:46.292Z,64.80
2018-09-25T09:29:20.042Z,66.80
2018-09-25T09:31:53.805Z,65.40
2018-09-25T09:34:27.489Z,67.80
2018-09-25T09:37:01.234Z,66.00
2018-09-25T09:39:35.307Z,66.90
2018-09-25T09:42:09.160Z,68.30
2018-09-25T09:44:42.959Z,68.20
2018-09-25T09:47:16.799Z,67.80
2018-09-25T09:49:50.392Z,67.20
2018-09-25T09:52:24.041Z,66.00
2018-09-25T09:54:57.876Z,66.30
2018-09-25T09:57:31.807Z,65.80
2018-09-25T10:00:05.738Z,66.00
2018-09-25T10:02:39.599Z,66.50
2018-09-25T10:05:13.883Z,65.50
2018-09-25T10:07:47.759Z,65.30
2018-09-25T10:10:21.551Z,65.30
2018-09-25T10:12:55.390Z,65.50
2018-09-25T10:15:29.167Z,65.40
2018-09-25T10:18:02.847Z,66.10
2018-09-25T10:20:36.602Z,65.70
2018-09-25T10:23:10.463Z,66.10
2018-09-25T10:25:44.255Z,66.60
2018-09-25T10:28:17.997Z,67.40
2018-09-25T10:30:51.839Z,65.30
2018-09-25T10:33:25.652Z,65.30
2018-09-25T10:35:59.526Z,65.60
2018-09-25T10:38:33.536Z,63.40
2018-09-25T10:41:07.491Z,65.60
2018-09-25T10:43:41.295Z,66.60
2018-09-25T10:46:15.132Z,66.40
2018-09-25T10:48:49.059Z,65.60
2018-09-25T10:51:22.888Z,66.40
2018-09-25T10:53:56.684Z,66.30
2018-09-25T10:56:30.450Z,65.60
2018-09-25T10:59:04.184Z,65.90
2018-09-25T11:01:38.006Z,65.10
2018-09-25T11:04:11.707Z,65.80
2018-09-25T11:06:45.715Z,65.50
2018-09-25T11:09:19.389Z,64.80
2018-09-25T11:11:53.234Z,61.90
2018-09-25T11:14:27.003Z,65.80
2018-09-25T11:17:00.905Z,65.70
2018-09-25T11:19:34.729Z,64.10
2018-09-25T11:22:08.530Z,62.50
2018-09-25T11:24:42.433Z,63.10
2018-09-25T11:27:16.159Z,65.20
2018-09-25T11:29:49.968Z,65.30
2018-09-25T11:32:23.760Z,64.60
2018-09-25T11:34:57.479Z,64.10
2018-09-25T11:37:31.282Z,63.80
2018-09-25T11:40:05.108Z,63.00
2018-09-25T11:42:38.965Z,64.50
2018-09-25T11:45:12.913Z,64.80
2018-09-25T11:47:46.727Z,62.30
2018-09-25T11:50:20.507Z,62.80
2018-09-25T11:52:54.320Z,59.50
2018-09-25T11:55:28.274Z,61.70
2018-09-25T11:58:02.157Z,62.20
2018-09-25T12:00:36.084Z,62.60
2018-09-25T12:03:09.889Z,63.10
2018-09-25T12:05:43.669Z,62.30
2018-09-25T12:08:17.437Z,62.00
2018-09-25T12:10:51.307Z,63.00
2018-09-25T12:13:25.011Z,61.50
2018-09-25T12:15:58.808Z,61.10
2018-09-25T12:18:32.663Z,60.90
2018-09-25T12:21:06.671Z,57.90
2018-09-25T12:23:40.451Z,58.90
2018-09-25T12:26:14.192Z,57.60
2018-09-25T12:28:48.012Z,57.30
2018-09-25T12:31:21.781Z,57.30
2018-09-25T12:33:55.541Z,58.20
2018-09-25T12:36:29.161Z,58.60
2018-09-25T12:39:02.917Z,56.80
2018-09-25T12:41:36.834Z,56.60
2018-09-25T12:44:10.632Z,58.40
2018-09-25T12:46:44.358Z,57.60
2018-09-25T12:49:18.257Z,56.50
2018-09-25T12:51:52.133Z,55.70
2018-09-25T12:54:25.833Z,58.40
2018-09-25T12:56:59.608Z,58.00
2018-09-25T12:59:33.258Z,56.50
2018-09-25T13:02:07.028Z,56.30
2018-09-25T13:04:40.833Z,55.80
2018-09-25T13:07:14.688Z,57.20
2018-09-25T13:09:48.442Z,57.10
2018-09-25T13:12:22.493Z,55.70
2018-09-25T13:14:56.340Z,56.40
2018-09-25T13:17:30.155Z,56.10
2018-09-25T13:20:03.803Z,55.20
2018-09-25T13:22:37.653Z,55.20
2018-09-25T13:25:11.360Z,53.70
2018-09-25T13:27:45.159Z,55.70
2018-09-25T13:30:18.941Z,55.40
2018-09-25T13:32:52.823Z,53.70
2018-09-25T13:35:26.573Z,54.00
2018-09-25T13:38:00.346Z,55.40
2018-09-25T13:40:34.097Z,53.30
2018-09-25T13:43:07.995Z,55.60
2018-09-25T13:45:41.747Z,51.50
2018-09-25T13:48:15.586Z,54.10
2018-09-25T13:50:49.420Z,54.10
2018-09-25T13:53:23.397Z,54.50
2018-09-25T13:55:57.245Z,54.10
2018-09-25T13:58:31.295Z,52.10
2018-09-25T14:01:05.044Z,52.00
2018-09-25T14:03:38.769Z,52.30
2018-09-25T14:06:12.507Z,53.60
2018-09-25T14:08:46.285Z,52.80
2018-09-25T14:11:20.171Z,50.00
2018-09-25T14:13:53.903Z,53.10
2018-09-25T14:16:27.777Z,52.60
2018-09-25T14:19:01.503Z,52.70
2018-09-25T14:21:35.244Z,52.50
2018-09-25T14:24:09.101Z,52.70
2018-09-25T14:26:42.894Z,52.30
2018-09-25T14:29:16.643Z,51.00
2018-09-25T14:31:50.568Z,52.10
2018-09-25T14:34:24.436Z,52.20
2018-09-25T14:36:58.176Z,50.90
2018-09-25T14:39:32.004Z,51.20
2018-09-25T14:42:05.955Z,48.70
2018-09-25T14:44:39.743Z,51.90
2018-09-25T14:47:13.620Z,50.30
2018-09-25T14:49:47.567Z,50.30
2018-09-25T14:52:21.336Z,49.40
2018-09-25T14:54:54.931Z,50.00
2018-09-25T14:57:28.728Z,47.10
2018-09-25T15:00:02.488Z,49.40
2018-09-25T15:02:36.264Z,49.30
2018-09-25T15:05:10.460Z,49.40
2018-09-25T15:07:44.220Z,45.10
2018-09-25T15:10:17.945Z,44.60
2018-09-25T15:12:51.690Z,46.10
2018-09-25T15:15:25.379Z,48.80
2018-09-25T15:17:59.123Z,46.20
2018-09-25T15:20:32.867Z,46.10
2018-09-25T15:23:06.801Z,45.60
2018-09-25T15:25:40.722Z,48.10
2018-09-25T15:28:14.472Z,46.90
2018-09-25T15:30:48.182Z,48.80
2018-09-25T15:33:21.759Z,47.80
2018-09-25T15:35:55.781Z,50.80
2018-09-25T15:38:29.578Z,50.10
2018-09-25T15:41:03.369Z,47.50
2018-09-25T15:43:37.293Z,48.30
2018-09-25T15:46:11.053Z,49.10
2018-09-25T15:48:44.738Z,50.90
2018-09-25T15:51:18.645Z,52.50
2018-09-25T15:53:52.393Z,53.00
2018-09-25T15:56:26.073Z,54.20
2018-09-25T15:58:59.834Z,53.80
2018-09-25T16:01:33.700Z,52.60
2018-09-25T16:04:07.444Z,52.00
2018-09-25T16:06:41.245Z,53.80
2018-09-25T16:09:15.110Z,55.20
2018-09-25T16:11:49.034Z,56.90
2018-09-25T16:14:22.922Z,57.50
2018-09-25T16:16:56.714Z,56.10
2018-09-25T16:19:30.611Z,56.80
2018-09-25T16:22:04.658Z,55.60
2018-09-25T16:24:38.645Z,56.50
2018-09-25T16:27:12.662Z,55.60
2018-09-25T16:29:46.239Z,53.40
2018-09-25T16:32:20.061Z,55.20
2018-09-25T16:34:54.022Z,53.30
2018-09-25T16:37:27.785Z,55.90
2018-09-25T16:40:01.615Z,55.80
2018-09-25T16:42:35.391Z,56.20
2018-09-25T16:45:09.939Z,56.90
2018-09-25T16:47:43.731Z,58.40
2018-09-25T16:50:17.533Z,56.00
2018-09-25T16:52:51.266Z,57.60
2018-09-25T16:55:24.905Z,58.90
2018-09-25T16:57:58.567Z,58.40
2018-09-25T17:00:32.425Z,58.80
2018-09-25T17:03:06.228Z,58.90
2018-09-25T17:05:40.043Z,58.60
2018-09-25T17:08:13.845Z,55.20
2018-09-25T17:10:47.532Z,58.10
2018-09-25T17:13:21.447Z,58.00
2018-09-25T17:15:55.369Z,56.40
2018-09-25T17:18:29.168Z,57.40
2018-09-25T17:21:02.966Z,59.30
2018-09-25T17:23:36.682Z,58.80
2018-09-25T17:26:10.373Z,58.10
2018-09-25T17:28:44.097Z,58.00
2018-09-25T17:31:17.824Z,59.10
2018-09-25T17:33:51.698Z,57.00
2018-09-25T17:36:25.448Z,58.00
2018-09-25T17:38:59.234Z,59.10
2018-09-25T17:41:33.029Z,59.30
2018-09-25T17:44:06.928Z,59.00
2018-09-25T17:46:40.832Z,56.30
2018-09-25T17:49:14.669Z,58.30
2018-09-25T17:51:48.640Z,57.80
2018-09-25T17:54:22.330Z,58.10
2018-09-25T17:56:56.070Z,59.50
2018-09-25T17:59:30.016Z,59.50
2018-09-25T18:02:03.745Z,59.50
2018-09-25T18:04:37.507Z,59.90
2018-09-25T18:07:11.474Z,60.00
2018-09-25T18:09:45.424Z,60.50
2018-09-25T18:12:19.213Z,60.40
2018-09-25T18:14:52.740Z,60.80
2018-09-25T18:17:26.500Z,59.90
2018-09-25T18:20:00.229Z,60.50
2018-09-25T18:22:34.050Z,61.00
2018-09-25T18:25:07.775Z,61.50
2018-09-25T18:27:41.748Z,61.40
2018-09-25T18:30:15.731Z,60.60
2018-09-25T18:32:49.468Z,59.90
2018-09-25T18:35:23.257Z,61.20
2018-09-25T18:37:57.158Z,61.10
2018-09-25T18:40:30.897Z,61.80
2018-09-25T18:43:04.812Z,61.70
2018-09-25T18:45:38.596Z,61.70
2018-09-25T18:48:12.398Z,60.80
2018-09-25T18:50:46.246Z,61.40
2018-09-25T18:53:20.022Z,61.40
2018-09-25T18:55:53.881Z,60.90
2018-09-25T18:58:27.524Z,62.20
2018-09-25T19:01:01.243Z,62.50
2018-09-25T19:03:34.975Z,62.00
2018-09-25T19:06:08.660Z,61.90
2018-09-25T19:08:42.422Z,61.60
2018-09-25T19:11:16.292Z,61.10
2018-09-25T19:13:50.183Z,60.20
2018-09-25T19:16:23.931Z,61.00
2018-09-25T19:18:57.696Z,61.30
2018-09-25T19:21:31.480Z,60.50
2018-09-25T19:24:05.285Z,61.00
2018-09-25T19:26:38.981Z,61.50
2018-09-25T19:29:12.798Z,61.50
2018-09-25T19:31:46.594Z,61.20
2018-09-25T19:34:20.347Z,61.30
2018-09-25T19:36:54.142Z,61.10
2018-09-25T19:39:27.941Z,61.20
2018-09-25T19:42:01.750Z,61.00
2018-09-25T19:44:35.566Z,61.90
2018-09-25T19:47:09.499Z,61.40
2018-09-25T19:49:43.403Z,61.00
2018-09-25T19:52:17.210Z,60.60
2018-09-25T19:54:51.115Z,61.00
2018-09-25T19:57:25.018Z,60.90
2018-09-25T19:59:58.776Z,60.40
2018-09-25T20:02:32.629Z,59.90
2018-09-25T20:05:06.493Z,59.50
2018-09-25T20:07:40.454Z,59.00
2018-09-25T20:10:14.381Z,59.20
2018-09-25T20:12:48.148Z,58.50
2018-09-25T20:15:22.004Z,58.90
2018-09-25T20:17:55.748Z,57.50
2018-09-25T20:20:29.578Z,57.30
2018-09-25T20:23:03.438Z,57.40
2018-09-25T20:25:37.224Z,57.50
2018-09-25T20:28:11.061Z,57.80
2018-09-25T20:30:44.881Z,57.30
2018-09-25T20:33:18.661Z,57.60
2018-09-25T20:35:52.412Z,57.40
2018-09-25T20:38:26.342Z,57.60
2018-09-25T20:41:00.206Z,57.80
2018-09-25T20:43:34.031Z,57.10
2018-09-25T20:46:07.823Z,58.00
2018-09-25T20:48:41.562Z,56.90
2018-09-25T20:51:15.308Z,57.40
2018-09-25T20:53:49.084Z,57.50
2018-09-25T20:56:22.997Z,57.40
2018-09-25T20:58:56.828Z,57.30
2018-09-25T21:01:30.607Z,57.60
2018-09-25T21:04:04.516Z,57.50
2018-09-25T21:06:38.293Z,57.70
2018-09-25T21:09:13.971Z,57.60
2018-09-25T21:11:48.310Z,58.30
2018-09-25T21:14:22.011Z,57.60
2018-09-25T21:16:55.917Z,57.60
2018-09-25T21:19:30.224Z,57.20
2018-09-25T21:22:04.016Z,57.40
2018-09-25T21:24:37.869Z,57.60
2018-09-25T21:27:12.171Z,58.00
2018-09-25T21:29:46.166Z,57.90
2018-09-25T21:32:19.957Z,57.90
2018-09-25T21:34:53.878Z,57.70
2018-09-25T21:37:27.531Z,58.30
2018-09-25T21:40:01.347Z,57.50
2018-09-25T21:42:35.279Z,57.60
2018-09-25T21:45:09.129Z,58.20
2018-09-25T21:47:42.831Z,58.40
2018-09-25T21:50:16.689Z,58.00
2018-09-25T21:52:50.618Z,58.30
2018-09-25T21:55:24.301Z,57.80
2018-09-25T21:57:58.115Z,57.30
2018-09-25T22:00:31.978Z,57.10
2018-09-25T22:03:05.819Z,56.80
2018-09-25T22:05:39.747Z,57.00
2018-09-25T22:08:13.562Z,57.40
2018-09-25T22:10:47.353Z,57.60
2018-09-25T22:13:21.132Z,58.10
2018-09-25T22:15:54.844Z,58.60
2018-09-25T22:18:28.628Z,57.70
2018-09-25T22:21:02.399Z,57.90
2018-09-25T22:23:36.179Z,58.30
2018-09-25T22:26:09.855Z,58.00
2018-09-25T22:28:43.627Z,58.30
2018-09-25T22:31:17.400Z,58.60
2018-09-25T22:33:51.166Z,58.60
2018-09-25T22:36:24.979Z,58.60
2018-09-25T22:38:58.749Z,58.70
2018-09-25T22:41:32.663Z,58.80
2018-09-25T22:44:06.333Z,58.90
2018-09-25T22:46:40.153Z,58.80
2018-09-25T22:49:14.025Z,59.40
2018-09-25T22:51:47.854Z,59.20
2018-09-25T22:54:21.616Z,59.10
2018-09-25T22:56:55.276Z,59.30
2018-09-25T22:59:28.934Z,59.50
2018-09-25T23:02:02.673Z,59.40
2018-09-25T23:04:36.471Z,59.70
2018-09-25T23:07:10.380Z,59.70
2018-09-25T23:09:44.104Z,59.60
2018-09-25T23:12:17.915Z,59.60
2018-09-25T23:14:51.717Z,59.70
2018-09-25T23:17:25.497Z,59.80
2018-09-25T23:19:59.298Z,59.80
2018-09-25T23:22:33.028Z,59.90
2018-09-25T23:25:06.772Z,59.90
2018-09-25T23:27:40.585Z,59.90
2018-09-25T23:30:14.588Z,59.60
2018-09-25T23:32:48.349Z,59.70
2018-09-25T23:35:22.151Z,59.60
2018-09-25T23:37:55.912Z,60.00
2018-09-25T23:40:32.528Z,59.80
2018-09-25T23:43:06.318Z,59.80
2018-09-25T23:45:39.889Z,60.40
2018-09-25T23:48:15.505Z,59.80
2018-09-25T23:50:49.280Z,60.00
2018-09-25T23:53:33.265Z,59.80
2018-09-25T23:56:20.274Z,59.70
2018-09-25T23:58:54.160Z,60.00
